sensor_id;sensor_type;location;lat;lon;timestamp;pressure;altitude;pressure_sealevel;temperature;humidity
20015;BME280;61787;42.022;23.078;2022-12-10T00:00:03;96266.56;;;13.35;100.00
20015;BME280;61787;42.022;23.078;2022-12-10T00:01:06;96262.38;;;13.37;100.00
20015;BME280;61787;42.022;23.078;2022-12-10T00:02:08;96268.16;;;13.39;100.00
20015;BME280;61787;42.022;23.078;2022-12-10T00:03:10;96268.53;;;13.38;100.00
20015;BME280;61787;42.022;23.078;2022-12-10T00:04:12;96267.75;;;13.37;100.00
20015;BME280;61787;42.022;23.078;2022-12-10T00:05:14;96260.84;;;13.40;100.00
20015;BME280;61787;42.022;23.078;2022-12-10T00:06:18;96266.25;;;13.40;100.00
20015;BME280;61787;42.022;23.078;2022-12-10T00:07:20;96266.25;;;13.40;100.00
20015;BME280;61787;42.022;23.078;2022-12-10T00:08:21;96257.75;;;13.38;100.00
20015;BME280;61787;42.022;23.078;2022-12-10T00:09:23;96259.31;;;13.39;100.00
20015;BME280;61787;42.022;23.078;2022-12-10T00:10:25;96260.84;;;13.40;100.00
20015;BME280;61787;42.022;23.078;2022-12-10T00:11:27;96259.72;;;13.41;100.00
20015;BME280;61787;42.022;23.078;2022-12-10T00:12:29;96259.41;;;13.46;100.00
20015;BME280;61787;42.022;23.078;2022-12-10T00:13:30;96266.34;;;13.47;100.00
20015;BME280;61787;42.022;23.078;2022-12-10T00:14:32;96268.63;;;13.45;100.00
20015;BME280;61787;42.022;23.078;2022-12-10T00:15:34;96262.44;;;13.44;100.00
20015;BME280;61787;42.022;23.078;2022-12-10T00:16:37;96265.16;;;13.44;100.00
20015;BME280;61787;42.022;23.078;2022-12-10T00:17:38;96264.00;;;13.45;100.00
20015;BME280;61787;42.022;23.078;2022-12-10T00:18:41;96244.38;;;13.45;100.00
20015;BME280;61787;42.022;23.078;2022-12-10T00:19:42;96257.06;;;13.44;100.00
20015;BME280;61787;42.022;23.078;2022-12-10T00:20:44;96258.28;;;13.47;99.68
20015;BME280;61787;42.022;23.078;2022-12-10T00:21:45;96255.22;;;13.48;99.79
20015;BME280;61787;42.022;23.078;2022-12-10T00:22:47;96253.66;;;13.47;100.00
20015;BME280;61787;42.022;23.078;2022-12-10T00:23:49;96245.22;;;13.49;99.85
20015;BME280;61787;42.022;23.078;2022-12-10T00:24:51;96249.06;;;13.48;99.59
20015;BME280;61787;42.022;23.078;2022-12-10T00:25:52;96239.41;;;13.47;99.84
20015;BME280;61787;42.022;23.078;2022-12-10T00:26:54;96237.16;;;13.49;99.78
20015;BME280;61787;42.022;23.078;2022-12-10T00:27:55;96240.97;;;13.48;99.69
20015;BME280;61787;42.022;23.078;2022-12-10T00:28:59;96243.28;;;13.49;99.52
20015;BME280;61787;42.022;23.078;2022-12-10T00:30:01;96234.44;;;13.49;98.83
20015;BME280;61787;42.022;23.078;2022-12-10T00:31:07;96233.28;;;13.50;99.66
20015;BME280;61787;42.022;23.078;2022-12-10T00:32:09;96237.19;;;13.52;99.61
20015;BME280;61787;42.022;23.078;2022-12-10T00:33:11;96237.16;;;13.49;99.37
20015;BME280;61787;42.022;23.078;2022-12-10T00:34:13;96233.66;;;13.48;99.51
20015;BME280;61787;42.022;23.078;2022-12-10T00:35:14;96229.47;;;13.51;99.23
20015;BME280;61787;42.022;23.078;2022-12-10T00:36:19;96232.97;;;13.55;99.56
20015;BME280;61787;42.022;23.078;2022-12-10T00:37:21;96233.75;;;13.55;99.31
20015;BME280;61787;42.022;23.078;2022-12-10T00:38:22;96239.59;;;13.61;99.35
20015;BME280;61787;42.022;23.078;2022-12-10T00:39:24;96241.91;;;13.59;98.83
20015;BME280;61787;42.022;23.078;2022-12-10T00:40:25;96239.91;;;13.56;99.54
20015;BME280;61787;42.022;23.078;2022-12-10T00:41:28;96244.59;;;13.59;99.14
20015;BME280;61787;42.022;23.078;2022-12-10T00:42:29;96228.75;;;13.54;99.31
20015;BME280;61787;42.022;23.078;2022-12-10T00:43:31;96234.13;;;13.54;99.40
20015;BME280;61787;42.022;23.078;2022-12-10T00:44:32;96241.00;;;13.51;99.89
20015;BME280;61787;42.022;23.078;2022-12-10T00:45:34;96232.56;;;13.53;99.83
20015;BME280;61787;42.022;23.078;2022-12-10T00:46:36;96235.63;;;13.51;99.62
20015;BME280;61787;42.022;23.078;2022-12-10T00:47:37;96243.03;;;13.58;99.48
20015;BME280;61787;42.022;23.078;2022-12-10T00:48:40;96234.53;;;13.56;99.34
20015;BME280;61787;42.022;23.078;2022-12-10T00:49:41;96237.97;;;13.53;99.76
20015;BME280;61787;42.022;23.078;2022-12-10T00:50:43;96244.91;;;13.54;100.00
20015;BME280;61787;42.022;23.078;2022-12-10T00:51:44;96250.69;;;13.56;99.94
20015;BME280;61787;42.022;23.078;2022-12-10T00:52:46;96253.31;;;13.49;100.00
20015;BME280;61787;42.022;23.078;2022-12-10T00:53:50;96261.78;;;13.51;100.00
20015;BME280;61787;42.022;23.078;2022-12-10T00:54:51;96257.94;;;13.52;100.00
20015;BME280;61787;42.022;23.078;2022-12-10T00:55:53;96262.19;;;13.53;100.00
20015;BME280;61787;42.022;23.078;2022-12-10T00:56:55;96257.94;;;13.52;99.85
20015;BME280;61787;42.022;23.078;2022-12-10T00:57:56;96269.50;;;13.52;100.00
20015;BME280;61787;42.022;23.078;2022-12-10T00:58:59;96274.13;;;13.52;99.87
20015;BME280;61787;42.022;23.078;2022-12-10T01:00:01;96271.09;;;13.57;99.88
20015;BME280;61787;42.022;23.078;2022-12-10T01:01:17;96270.28;;;13.53;100.00
20015;BME280;61787;42.022;23.078;2022-12-10T01:02:19;96267.59;;;13.53;100.00
20015;BME280;61787;42.022;23.078;2022-12-10T01:03:22;96268.41;;;13.57;100.00
20015;BME280;61787;42.022;23.078;2022-12-10T01:04:24;96267.97;;;13.55;99.95
20015;BME280;61787;42.022;23.078;2022-12-10T01:05:25;96267.16;;;13.51;100.00
20015;BME280;61787;42.022;23.078;2022-12-10T01:06:30;96265.25;;;13.51;100.00
20015;BME280;61787;42.022;23.078;2022-12-10T01:07:32;96260.22;;;13.50;100.00
20015;BME280;61787;42.022;23.078;2022-12-10T01:08:33;96258.69;;;13.49;100.00
20015;BME280;61787;42.022;23.078;2022-12-10T01:09:35;96261.06;;;13.54;100.00
20015;BME280;61787;42.022;23.078;2022-12-10T01:10:37;96258.06;;;13.59;100.00
20015;BME280;61787;42.022;23.078;2022-12-10T01:11:41;96268.44;;;13.60;100.00
20015;BME280;61787;42.022;23.078;2022-12-10T01:12:42;96258.88;;;13.63;100.00
20015;BME280;61787;42.022;23.078;2022-12-10T01:13:45;96268.97;;;13.70;100.00
20015;BME280;61787;42.022;23.078;2022-12-10T01:14:47;96258.19;;;13.70;99.80
20015;BME280;61787;42.022;23.078;2022-12-10T01:15:49;96258.63;;;13.75;99.44
20015;BME280;61787;42.022;23.078;2022-12-10T01:16:54;96259.38;;;13.72;99.21
20015;BME280;61787;42.022;23.078;2022-12-10T01:17:56;96257.88;;;13.75;99.28
20015;BME280;61787;42.022;23.078;2022-12-10T01:18:58;96262.47;;;13.74;98.98
20015;BME280;61787;42.022;23.078;2022-12-10T01:20:00;96260.50;;;13.71;99.29
20015;BME280;61787;42.022;23.078;2022-12-10T01:21:07;96260.50;;;13.71;99.30
20015;BME280;61787;42.022;23.078;2022-12-10T01:22:09;96260.19;;;13.76;99.63
20015;BME280;61787;42.022;23.078;2022-12-10T01:23:11;96263.28;;;13.78;99.05
20015;BME280;61787;42.022;23.078;2022-12-10T01:24:12;96251.88;;;13.88;98.71
20015;BME280;61787;42.022;23.078;2022-12-10T01:25:14;96254.47;;;13.81;99.11
20015;BME280;61787;42.022;23.078;2022-12-10T01:26:19;96254.41;;;13.74;98.99
20015;BME280;61787;42.022;23.078;2022-12-10T01:27:20;96250.53;;;13.75;99.71
20015;BME280;61787;42.022;23.078;2022-12-10T01:28:22;96246.25;;;13.71;99.68
20015;BME280;61787;42.022;23.078;2022-12-10T01:29:24;96250.16;;;13.73;99.25
20015;BME280;61787;42.022;23.078;2022-12-10T01:30:26;96243.63;;;13.74;99.27
20015;BME280;61787;42.022;23.078;2022-12-10T01:31:30;96251.75;;;13.78;99.75
20015;BME280;61787;42.022;23.078;2022-12-10T01:32:32;96247.50;;;13.80;100.00
20015;BME280;61787;42.022;23.078;2022-12-10T01:33:35;96246.06;;;13.86;99.40
20015;BME280;61787;42.022;23.078;2022-12-10T01:34:36;96248.03;;;13.89;99.15
20015;BME280;61787;42.022;23.078;2022-12-10T01:35:38;96244.44;;;13.78;99.23
20015;BME280;61787;42.022;23.078;2022-12-10T01:36:42;96241.06;;;13.85;99.84
20015;BME280;61787;42.022;23.078;2022-12-10T01:37:44;96232.19;;;13.84;99.51
20015;BME280;61787;42.022;23.078;2022-12-10T01:38:46;96234.38;;;13.75;100.00
20015;BME280;61787;42.022;23.078;2022-12-10T01:39:47;96245.13;;;13.72;100.00
20015;BME280;61787;42.022;23.078;2022-12-10T01:40:49;96239.41;;;13.77;100.00
20015;BME280;61787;42.022;23.078;2022-12-10T01:41:56;96243.63;;;13.74;100.00
20015;BME280;61787;42.022;23.078;2022-12-10T01:42:58;96233.84;;;13.62;100.00
20015;BME280;61787;42.022;23.078;2022-12-10T01:45:12;96237.19;;;13.52;100.00
20015;BME280;61787;42.022;23.078;2022-12-10T01:46:13;96236.44;;;13.55;100.00
20015;BME280;61787;42.022;23.078;2022-12-10T01:47:15;96241.78;;;13.52;100.00
20015;BME280;61787;42.022;23.078;2022-12-10T01:48:17;96240.22;;;13.51;100.00
20015;BME280;61787;42.022;23.078;2022-12-10T01:49:21;96244.84;;;13.50;100.00
20015;BME280;61787;42.022;23.078;2022-12-10T01:50:23;96253.31;;;13.49;100.00
20015;BME280;61787;42.022;23.078;2022-12-10T01:51:27;96252.09;;;13.46;100.00
20015;BME280;61787;42.022;23.078;2022-12-10T01:52:29;96252.47;;;13.45;100.00
20015;BME280;61787;42.022;23.078;2022-12-10T01:53:31;96245.94;;;13.46;100.00
20015;BME280;61787;42.022;23.078;2022-12-10T01:54:38;96241.38;;;13.50;100.00
20015;BME280;61787;42.022;23.078;2022-12-10T01:55:50;96242.53;;;13.49;100.00
20015;BME280;61787;42.022;23.078;2022-12-10T01:57:00;96246.28;;;13.44;100.00
20015;BME280;61787;42.022;23.078;2022-12-10T01:58:03;96252.78;;;13.40;100.00
20015;BME280;61787;42.022;23.078;2022-12-10T01:59:05;96255.06;;;13.38;100.00
20015;BME280;61787;42.022;23.078;2022-12-10T02:00:07;96247.72;;;13.35;100.00
20015;BME280;61787;42.022;23.078;2022-12-10T02:01:13;96252.31;;;13.34;100.00
20015;BME280;61787;42.022;23.078;2022-12-10T02:02:24;96243.16;;;13.39;100.00
20015;BME280;61787;42.022;23.078;2022-12-10T02:03:58;96241.50;;;13.31;100.00
20015;BME280;61787;42.022;23.078;2022-12-10T02:05:24;96249.16;;;13.29;100.00
20015;BME280;61787;42.022;23.078;2022-12-10T02:06:56;96242.63;;;13.30;100.00
20015;BME280;61787;42.022;23.078;2022-12-10T02:08:08;96242.94;;;13.24;100.00
20015;BME280;61787;42.022;23.078;2022-12-10T02:10:54;96239.00;;;13.18;100.00
20015;BME280;61787;42.022;23.078;2022-12-10T02:12:11;96245.13;;;13.15;100.00
20015;BME280;61787;42.022;23.078;2022-12-10T02:13:34;96245.91;;;13.16;100.00
20015;BME280;61787;42.022;23.078;2022-12-10T02:14:41;96246.69;;;13.16;100.00
20015;BME280;61787;42.022;23.078;2022-12-10T02:15:51;96247.50;;;13.20;100.00
20015;BME280;61787;42.022;23.078;2022-12-10T02:16:59;96244.00;;;13.16;100.00
20015;BME280;61787;42.022;23.078;2022-12-10T02:21:20;96230.41;;;13.09;100.00
20015;BME280;61787;42.022;23.078;2022-12-10T02:22:25;96233.03;;;13.06;100.00
20015;BME280;61787;42.022;23.078;2022-12-10T02:23:45;96233.41;;;13.04;100.00
20015;BME280;61787;42.022;23.078;2022-12-10T02:24:51;96224.16;;;13.02;100.00
20015;BME280;61787;42.022;23.078;2022-12-10T02:26:15;96235.69;;;13.02;100.00
20015;BME280;61787;42.022;23.078;2022-12-10T02:28:53;96233.34;;;13.01;100.00
20015;BME280;61787;42.022;23.078;2022-12-10T02:29:57;96228.75;;;13.01;100.00
20015;BME280;61787;42.022;23.078;2022-12-10T02:31:00;96227.63;;;13.02;100.00
20015;BME280;61787;42.022;23.078;2022-12-10T02:32:04;96231.44;;;13.01;100.00
20015;BME280;61787;42.022;23.078;2022-12-10T02:33:07;96223.38;;;13.01;100.00
20015;BME280;61787;42.022;23.078;2022-12-10T02:34:10;96222.94;;;12.99;100.00
20015;BME280;61787;42.022;23.078;2022-12-10T02:35:17;96218.00;;;13.01;100.00
20015;BME280;61787;42.022;23.078;2022-12-10T02:36:21;96218.78;;;13.02;100.00
20015;BME280;61787;42.022;23.078;2022-12-10T02:37:31;96218.78;;;13.02;100.00
20015;BME280;61787;42.022;23.078;2022-12-10T02:38:36;96216.84;;;13.02;100.00
20015;BME280;61787;42.022;23.078;2022-12-10T02:39:43;96217.25;;;13.04;100.00
20015;BME280;61787;42.022;23.078;2022-12-10T02:40:50;96220.38;;;13.06;100.00
20015;BME280;61787;42.022;23.078;2022-12-10T02:41:54;96219.63;;;13.09;100.00
20015;BME280;61787;42.022;23.078;2022-12-10T02:42:56;96218.50;;;13.10;100.00
20015;BME280;61787;42.022;23.078;2022-12-10T02:43:59;96214.25;;;13.09;100.00
20015;BME280;61787;42.022;23.078;2022-12-10T02:45:04;96219.63;;;13.09;100.00
20015;BME280;61787;42.022;23.078;2022-12-10T02:46:06;96224.72;;;13.14;100.00
20015;BME280;61787;42.022;23.078;2022-12-10T02:47:09;96213.56;;;13.12;100.00
20015;BME280;61787;42.022;23.078;2022-12-10T02:48:12;96217.31;;;13.08;100.00
20015;BME280;61787;42.022;23.078;2022-12-10T02:49:16;96211.16;;;13.07;100.00
20015;BME280;61787;42.022;23.078;2022-12-10T02:50:19;96211.09;;;13.04;100.00
20015;BME280;61787;42.022;23.078;2022-12-10T02:51:21;96212.59;;;13.01;100.00
20015;BME280;61787;42.022;23.078;2022-12-10T02:52:24;96207.22;;;13.01;100.00
20015;BME280;61787;42.022;23.078;2022-12-10T02:53:26;96199.16;;;13.01;100.00
20015;BME280;61787;42.022;23.078;2022-12-10T02:54:37;96206.78;;;12.99;100.00
20015;BME280;61787;42.022;23.078;2022-12-10T02:56:07;96201.09;;;13.04;100.00
20015;BME280;61787;42.022;23.078;2022-12-10T02:59:06;96204.84;;;12.96;100.00
20015;BME280;61787;42.022;23.078;2022-12-10T03:00:18;96207.09;;;12.94;100.00
20015;BME280;61787;42.022;23.078;2022-12-10T03:01:42;96192.47;;;12.92;100.00
20015;BME280;61787;42.022;23.078;2022-12-10T03:04:26;96188.59;;;12.89;100.00
20015;BME280;61787;42.022;23.078;2022-12-10T03:05:38;96199.34;;;12.89;100.00
20015;BME280;61787;42.022;23.078;2022-12-10T03:06:56;96192.41;;;12.88;100.00
20015;BME280;61787;42.022;23.078;2022-12-10T03:09:30;96187.44;;;12.90;100.00
20015;BME280;61787;42.022;23.078;2022-12-10T03:10:43;96191.69;;;12.91;100.00
20015;BME280;61787;42.022;23.078;2022-12-10T03:11:48;96188.22;;;12.91;100.00
20015;BME280;61787;42.022;23.078;2022-12-10T03:13:00;96180.94;;;12.91;100.00
20015;BME280;61787;42.022;23.078;2022-12-10T03:14:24;96191.69;;;12.91;100.00
20015;BME280;61787;42.022;23.078;2022-12-10T03:15:29;96195.53;;;12.90;100.00
20015;BME280;61787;42.022;23.078;2022-12-10T03:16:35;96196.25;;;12.87;100.00
20015;BME280;61787;42.022;23.078;2022-12-10T03:17:38;96197.41;;;12.86;100.00
20015;BME280;61787;42.022;23.078;2022-12-10T03:18:42;96200.13;;;12.90;100.00
20015;BME280;61787;42.022;23.078;2022-12-10T03:19:48;96192.41;;;12.88;100.00
20015;BME280;61787;42.022;23.078;2022-12-10T03:20:53;96193.97;;;12.89;100.00
20015;BME280;61787;42.022;23.078;2022-12-10T03:22:01;96187.41;;;12.87;100.00
20015;BME280;61787;42.022;23.078;2022-12-10T03:23:11;96193.56;;;12.87;100.00
20015;BME280;61787;42.022;23.078;2022-12-10T03:24:15;96191.59;;;12.84;100.00
20015;BME280;61787;42.022;23.078;2022-12-10T03:25:19;96200.78;;;12.83;100.00
20015;BME280;61787;42.022;23.078;2022-12-10T03:26:23;96190.03;;;12.83;100.00
20015;BME280;61787;42.022;23.078;2022-12-10T03:27:29;96195.41;;;12.83;100.00
20015;BME280;61787;42.022;23.078;2022-12-10T03:28:38;96184.66;;;12.83;100.00
20015;BME280;61787;42.022;23.078;2022-12-10T03:29:46;96188.19;;;12.87;100.00
20015;BME280;61787;42.022;23.078;2022-12-10T03:30:49;96194.75;;;12.90;100.00
20015;BME280;61787;42.022;23.078;2022-12-10T03:31:53;96179.38;;;12.90;100.00
20015;BME280;61787;42.022;23.078;2022-12-10T03:32:56;96184.41;;;12.92;100.00
20015;BME280;61787;42.022;23.078;2022-12-10T03:33:58;96181.72;;;12.92;100.00
20015;BME280;61787;42.022;23.078;2022-12-10T03:35:00;96178.63;;;12.93;100.00
20015;BME280;61787;42.022;23.078;2022-12-10T03:36:04;96184.88;;;12.97;100.00
20015;BME280;61787;42.022;23.078;2022-12-10T03:37:06;96168.72;;;12.97;100.00
20015;BME280;61787;42.022;23.078;2022-12-10T03:38:08;96181.75;;;12.95;100.00
20015;BME280;61787;42.022;23.078;2022-12-10T03:39:12;96184.75;;;12.90;100.00
20015;BME280;61787;42.022;23.078;2022-12-10T03:40:14;96183.63;;;12.91;100.00
20015;BME280;61787;42.022;23.078;2022-12-10T03:41:16;96188.34;;;12.98;100.00
20015;BME280;61787;42.022;23.078;2022-12-10T03:42:17;96189.47;;;12.97;100.00
20015;BME280;61787;42.022;23.078;2022-12-10T03:43:21;96182.66;;;13.03;100.00
20015;BME280;61787;42.022;23.078;2022-12-10T03:44:33;96185.72;;;13.05;100.00
20015;BME280;61787;42.022;23.078;2022-12-10T03:45:35;96181.75;;;12.95;100.00
20015;BME280;61787;42.022;23.078;2022-12-10T03:46:37;96189.41;;;12.93;100.00
20015;BME280;61787;42.022;23.078;2022-12-10T03:47:38;96184.66;;;12.83;100.00
20015;BME280;61787;42.022;23.078;2022-12-10T03:48:40;96181.09;;;12.75;100.00
20015;BME280;61787;42.022;23.078;2022-12-10T03:49:42;96179.88;;;12.73;100.00
20015;BME280;61787;42.022;23.078;2022-12-10T03:50:44;96176.03;;;12.70;100.00
20015;BME280;61787;42.022;23.078;2022-12-10T03:51:45;96181.88;;;12.76;100.00
20015;BME280;61787;42.022;23.078;2022-12-10T03:52:47;96183.88;;;12.82;100.00
20015;BME280;61787;42.022;23.078;2022-12-10T03:53:48;96182.41;;;12.89;100.00
20015;BME280;61787;42.022;23.078;2022-12-10T03:54:50;96179.38;;;12.90;100.00
20015;BME280;61787;42.022;23.078;2022-12-10T03:55:52;96173.19;;;12.86;100.00
20015;BME280;61787;42.022;23.078;2022-12-10T03:56:55;96177.00;;;12.85;100.00
20015;BME280;61787;42.022;23.078;2022-12-10T03:57:56;96180.81;;;12.84;100.00
20015;BME280;61787;42.022;23.078;2022-12-10T03:58:58;96175.03;;;12.82;100.00
20015;BME280;61787;42.022;23.078;2022-12-10T03:59:59;96174.66;;;12.83;100.00
20015;BME280;61787;42.022;23.078;2022-12-10T04:01:05;96171.63;;;12.85;100.00
20015;BME280;61787;42.022;23.078;2022-12-10T04:02:06;96170.88;;;12.88;100.00
20015;BME280;61787;42.022;23.078;2022-12-10T04:03:08;96174.00;;;12.90;100.00
20015;BME280;61787;42.022;23.078;2022-12-10T04:04:10;96165.50;;;12.88;100.00
20015;BME280;61787;42.022;23.078;2022-12-10T04:05:12;96165.41;;;12.81;100.00
20015;BME280;61787;42.022;23.078;2022-12-10T04:06:16;96165.41;;;12.81;100.00
20015;BME280;61787;42.022;23.078;2022-12-10T04:07:19;96166.13;;;12.78;100.00
20015;BME280;61787;42.022;23.078;2022-12-10T04:08:20;96176.06;;;12.74;100.00
20015;BME280;61787;42.022;23.078;2022-12-10T04:09:22;96171.41;;;12.71;100.00
20015;BME280;61787;42.022;23.078;2022-12-10T04:10:23;96174.47;;;12.69;100.00
20015;BME280;61787;42.022;23.078;2022-12-10T04:11:25;96168.31;;;12.69;100.00
20015;BME280;61787;42.022;23.078;2022-12-10T04:12:27;96167.91;;;12.67;100.00
20015;BME280;61787;42.022;23.078;2022-12-10T04:13:31;96165.91;;;12.64;100.00
20015;BME280;61787;42.022;23.078;2022-12-10T04:14:51;96165.91;;;12.64;100.00
20015;BME280;61787;42.022;23.078;2022-12-10T04:16:12;96162.09;;;12.65;100.00
20015;BME280;61787;42.022;23.078;2022-12-10T04:17:28;96161.28;;;12.61;100.00
20015;BME280;61787;42.022;23.078;2022-12-10T04:18:32;96163.97;;;12.61;100.00
20015;BME280;61787;42.022;23.078;2022-12-10T04:19:34;96158.94;;;12.59;100.00
20015;BME280;61787;42.022;23.078;2022-12-10T04:20:36;96152.00;;;12.58;100.00
20015;BME280;61787;42.022;23.078;2022-12-10T04:21:56;96150.91;;;12.63;100.00
20015;BME280;61787;42.022;23.078;2022-12-10T04:23:16;96154.75;;;12.62;100.00
20015;BME280;61787;42.022;23.078;2022-12-10T04:24:36;96160.50;;;12.60;100.00
20015;BME280;61787;42.022;23.078;2022-12-10T04:25:57;96161.63;;;12.59;100.00
20015;BME280;61787;42.022;23.078;2022-12-10T04:27:39;96160.50;;;12.60;100.00
20015;BME280;61787;42.022;23.078;2022-12-10T04:28:41;96157.84;;;12.64;100.00
20015;BME280;61787;42.022;23.078;2022-12-10T04:29:44;96148.31;;;12.66;100.00
20015;BME280;61787;42.022;23.078;2022-12-10T04:30:45;96144.53;;;12.71;100.00
20015;BME280;61787;42.022;23.078;2022-12-10T04:31:47;96148.34;;;12.70;100.00
20015;BME280;61787;42.022;23.078;2022-12-10T04:32:49;96142.22;;;12.73;100.00
20015;BME280;61787;42.022;23.078;2022-12-10T04:33:50;96147.59;;;12.73;100.00
20015;BME280;61787;42.022;23.078;2022-12-10T04:34:52;96142.75;;;12.82;100.00
20015;BME280;61787;42.022;23.078;2022-12-10T04:35:53;96140.56;;;12.91;100.00
20015;BME280;61787;42.022;23.078;2022-12-10T04:36:57;96137.16;;;12.94;100.00
20015;BME280;61787;42.022;23.078;2022-12-10T04:37:58;96130.97;;;12.94;100.00
20015;BME280;61787;42.022;23.078;2022-12-10T04:39:00;96130.28;;;12.97;100.00
20015;BME280;61787;42.022;23.078;2022-12-10T04:40:03;96130.34;;;13.04;100.00
20015;BME280;61787;42.022;23.078;2022-12-10T04:41:04;96128.03;;;13.02;100.00
20015;BME280;61787;42.022;23.078;2022-12-10T04:42:17;96129.53;;;13.00;100.00
20015;BME280;61787;42.022;23.078;2022-12-10T04:43:19;96127.16;;;12.95;100.00
20015;BME280;61787;42.022;23.078;2022-12-10T04:44:20;96128.59;;;12.89;100.00
20015;BME280;61787;42.022;23.078;2022-12-10T04:45:22;96131.75;;;12.94;100.00
20015;BME280;61787;42.022;23.078;2022-12-10T04:46:23;96127.94;;;12.95;100.00
20015;BME280;61787;42.022;23.078;2022-12-10T04:47:25;96125.66;;;12.97;100.00
20015;BME280;61787;42.022;23.078;2022-12-10T04:48:26;96118.00;;;12.99;100.00
20015;BME280;61787;42.022;23.078;2022-12-10T04:49:28;96120.19;;;12.90;100.00
20015;BME280;61787;42.022;23.078;2022-12-10T04:50:30;96124.75;;;12.86;100.00
20015;BME280;61787;42.022;23.078;2022-12-10T04:51:31;96134.88;;;12.96;100.00
20015;BME280;61787;42.022;23.078;2022-12-10T04:52:33;96126.03;;;12.96;100.00
20015;BME280;61787;42.022;23.078;2022-12-10T04:53:35;96131.38;;;12.92;100.00
20015;BME280;61787;42.022;23.078;2022-12-10T04:54:36;96136.44;;;12.97;100.00
20015;BME280;61787;42.022;23.078;2022-12-10T04:55:39;96143.34;;;12.98;100.00
20015;BME280;61787;42.022;23.078;2022-12-10T04:56:41;96136.78;;;12.96;100.00
20015;BME280;61787;42.022;23.078;2022-12-10T04:57:43;96131.72;;;12.91;100.00
20015;BME280;61787;42.022;23.078;2022-12-10T04:58:45;96138.59;;;12.88;100.00
20015;BME280;61787;42.022;23.078;2022-12-10T04:59:46;96137.47;;;12.89;100.00
20015;BME280;61787;42.022;23.078;2022-12-10T05:00:48;96135.91;;;12.88;100.00
20015;BME280;61787;42.022;23.078;2022-12-10T05:01:49;96122.44;;;12.88;100.00
20015;BME280;61787;42.022;23.078;2022-12-10T05:02:51;96130.53;;;12.88;100.00
20015;BME280;61787;42.022;23.078;2022-12-10T05:03:53;96117.38;;;12.83;100.00
20015;BME280;61787;42.022;23.078;2022-12-10T05:04:55;96118.53;;;12.82;100.00
20015;BME280;61787;42.022;23.078;2022-12-10T05:06:07;96116.25;;;12.84;100.00
20015;BME280;61787;42.022;23.078;2022-12-10T05:07:09;96117.03;;;12.85;100.00
20015;BME280;61787;42.022;23.078;2022-12-10T05:08:11;96120.19;;;12.90;100.00
20015;BME280;61787;42.022;23.078;2022-12-10T05:09:13;96130.28;;;12.97;100.00
20015;BME280;61787;42.022;23.078;2022-12-10T05:10:15;96124.16;;;13.00;100.00
20015;BME280;61787;42.022;23.078;2022-12-10T05:11:19;96125.66;;;12.97;100.00
20015;BME280;61787;42.022;23.078;2022-12-10T05:12:20;96121.00;;;12.94;100.00
20015;BME280;61787;42.022;23.078;2022-12-10T05:13:22;96118.63;;;12.89;100.00
20015;BME280;61787;42.022;23.078;2022-12-10T05:14:23;96124.81;;;12.93;100.00
20015;BME280;61787;42.022;23.078;2022-12-10T05:15:25;96122.97;;;12.97;100.00
20015;BME280;61787;42.022;23.078;2022-12-10T05:16:29;96126.88;;;13.03;100.00
20015;BME280;61787;42.022;23.078;2022-12-10T05:17:30;96132.31;;;13.07;100.00
20015;BME280;61787;42.022;23.078;2022-12-10T05:18:32;96132.69;;;13.05;100.00
20015;BME280;61787;42.022;23.078;2022-12-10T05:19:34;96140.75;;;13.05;100.00
20015;BME280;61787;42.022;23.078;2022-12-10T05:20:36;96151.94;;;13.07;100.00
20015;BME280;61787;42.022;23.078;2022-12-10T05:21:37;96149.34;;;13.14;100.00
20015;BME280;61787;42.022;23.078;2022-12-10T05:22:57;96153.66;;;13.19;100.00
20015;BME280;61787;42.022;23.078;2022-12-10T05:24:18;96156.75;;;13.21;100.00
20015;BME280;61787;42.022;23.078;2022-12-10T05:25:19;96161.38;;;13.20;100.00
20015;BME280;61787;42.022;23.078;2022-12-10T05:26:23;96154.84;;;13.21;100.00
20015;BME280;61787;42.022;23.078;2022-12-10T05:27:25;96158.34;;;13.26;100.00
20015;BME280;61787;42.022;23.078;2022-12-10T05:28:28;96156.13;;;13.31;100.00
20015;BME280;61787;42.022;23.078;2022-12-10T05:29:30;96160.00;;;13.34;100.00
20015;BME280;61787;42.022;23.078;2022-12-10T05:30:34;96166.16;;;13.34;100.00
20015;BME280;61787;42.022;23.078;2022-12-10T05:31:36;96168.84;;;13.34;100.00
20015;BME280;61787;42.022;23.078;2022-12-10T05:32:37;96170.78;;;13.34;100.00
20015;BME280;61787;42.022;23.078;2022-12-10T05:33:39;96176.91;;;13.34;100.00
20015;BME280;61787;42.022;23.078;2022-12-10T05:34:41;96175.84;;;13.39;100.00
20015;BME280;61787;42.022;23.078;2022-12-10T05:35:42;96173.84;;;13.32;100.00
20015;BME280;61787;42.022;23.078;2022-12-10T05:36:44;96177.63;;;13.28;100.00
20015;BME280;61787;42.022;23.078;2022-12-10T05:37:46;96168.81;;;13.31;100.00
20015;BME280;61787;42.022;23.078;2022-12-10T05:38:48;96178.13;;;13.37;100.00
20015;BME280;61787;42.022;23.078;2022-12-10T05:39:49;96176.66;;;13.43;100.00
20015;BME280;61787;42.022;23.078;2022-12-10T05:40:51;96177.81;;;13.45;100.00
20015;BME280;61787;42.022;23.078;2022-12-10T05:41:57;96167.13;;;13.49;100.00
20015;BME280;61787;42.022;23.078;2022-12-10T05:42:59;96167.53;;;13.54;100.00
20015;BME280;61787;42.022;23.078;2022-12-10T05:44:00;96157.19;;;13.56;100.00
20015;BME280;61787;42.022;23.078;2022-12-10T05:45:02;96159.09;;;13.56;100.00
20015;BME280;61787;42.022;23.078;2022-12-10T05:46:07;96156.81;;;13.58;100.00